Time;durP1;ratioP1;P1;durP2;ratioP2;P2;SDS_P1;SDS_P2;PMS_P1;PMS_P2;Temp;Humidity;BMP_temperature;BMP_pressure;BME280_temperature;BME280_humidity;BME280_pressure;Samples;Min_cycle;Max_cycle;Signal;HPM_P1;HPM_P2
2021/10/20 00:00:57;;;;;;;;;;;15.20;99.90;;;;;;5090630;28;19950;-71
2021/10/20 00:03:22;;;;;;;;;;;15.20;99.90;;;;;;5092616;28;19965;-71
2021/10/20 00:05:48;;;;;;;;;;;15.10;99.90;;;;;;5092962;28;19918;-71
2021/10/20 00:08:13;;;;;;;;;;;15.10;99.90;;;;;;5088475;28;19908;-72
2021/10/20 00:10:39;;;;;;;;;;;15.10;99.90;;;;;;5090358;28;20366;-71
2021/10/20 00:13:04;;;;;;;;;;;15.10;99.90;;;;;;5072083;28;20026;-72
2021/10/20 00:15:30;;;;;;;;;;;15.10;99.90;;;;;;5089915;28;19912;-72
2021/10/20 00:17:55;;;;;;;;;;;15.10;99.90;;;;;;5089716;28;20465;-71
2021/10/20 00:20:23;;;;;;;;;;;15.10;99.90;;;;;;5088938;28;19928;-72
2021/10/20 00:22:49;;;;;;;;;;;15.10;99.90;;;;;;5088791;28;20006;-72
2021/10/20 00:25:15;;;;;;;;;;;15.10;99.90;;;;;;5089462;28;20362;-71
2021/10/20 00:27:41;;;;;;;;;;;15.10;99.90;;;;;;5090062;28;19994;-71
2021/10/20 00:30:07;;;;;;;;;;;15.00;99.90;;;;;;5089905;28;20007;-71
2021/10/20 00:32:32;;;;;;;;;;;15.00;99.90;;;;;;5089425;28;19951;-71
2021/10/20 00:34:58;;;;;;;;;;;15.00;99.90;;;;;;5088323;28;19959;-71
2021/10/20 00:37:23;;;;;;;;;;;15.00;99.90;;;;;;5087986;28;19927;-71
2021/10/20 00:39:49;;;;;;;;;;;15.00;99.90;;;;;;5070788;28;19961;-72
2021/10/20 00:42:16;;;;;;;;;;;14.90;99.90;;;;;;5090186;28;19965;-71
2021/10/20 00:44:53;;;;;;;;;;;15.00;99.90;;;;;;5064592;28;19951;-72
2021/10/20 00:47:18;;;;;;;;;;;15.00;99.90;;;;;;5089039;28;19928;-72
2021/10/20 00:49:44;;;;;;;;;;;15.00;99.90;;;;;;5089372;28;19912;-71
2021/10/20 00:52:10;;;;;;;;;;;14.90;99.90;;;;;;5088186;28;19955;-71
2021/10/20 00:54:37;;;;;;;;;;;15.00;99.90;;;;;;5088593;28;20370;-71
2021/10/20 00:57:03;;;;;;;;;;;15.00;99.90;;;;;;5071039;28;19919;-71
2021/10/20 00:59:29;;;;;;;;;;;15.00;99.90;;;;;;5089005;28;19935;-71
2021/10/20 01:01:54;;;;;;;;;;;14.90;99.90;;;;;;5088661;28;20422;-72
2021/10/20 01:04:20;;;;;;;;;;;14.90;99.90;;;;;;5088685;28;19951;-72
2021/10/20 01:06:46;;;;;;;;;;;14.90;99.90;;;;;;5070779;28;20011;-71
2021/10/20 01:09:11;;;;;;;;;;;14.90;99.90;;;;;;5070216;28;20023;-71
2021/10/20 01:11:37;;;;;;;;;;;14.90;99.90;;;;;;5089220;28;19916;-71
2021/10/20 01:14:02;;;;;;;;;;;14.90;99.90;;;;;;5088238;28;19973;-72
2021/10/20 01:16:28;;;;;;;;;;;14.80;99.90;;;;;;5068896;28;20267;-71
2021/10/20 01:18:53;;;;;;;;;;;14.80;99.90;;;;;;5087874;28;19934;-71
2021/10/20 01:21:21;;;;;;;;;;;14.80;99.90;;;;;;5088860;28;19959;-71
2021/10/20 01:23:49;;;;;;;;;;;14.80;99.90;;;;;;5088162;28;19980;-72
2021/10/20 01:26:15;;;;;;;;;;;14.80;99.90;;;;;;5089104;28;19919;-72
2021/10/20 01:28:40;;;;;;;;;;;14.80;99.90;;;;;;5088828;28;19923;-71
2021/10/20 01:31:06;;;;;;;;;;;14.80;99.90;;;;;;5088954;28;19912;-71
2021/10/20 01:33:31;;;;;;;;;;;14.70;99.90;;;;;;5086905;28;19938;-71
2021/10/20 01:35:56;;;;;;;;;;;14.70;99.90;;;;;;5089141;28;20254;-71
2021/10/20 01:38:22;;;;;;;;;;;14.70;99.90;;;;;;5088405;28;20358;-72
2021/10/20 01:40:47;;;;;;;;;;;14.70;99.90;;;;;;5088431;28;19916;-72
2021/10/20 01:43:13;;;;;;;;;;;14.70;99.90;;;;;;5087938;28;19912;-72
2021/10/20 01:45:38;;;;;;;;;;;14.70;99.90;;;;;;5088206;28;19923;-72
2021/10/20 01:48:04;;;;;;;;;;;14.70;99.90;;;;;;5087433;28;19919;-71
2021/10/20 01:50:29;;;;;;;;;;;14.70;99.90;;;;;;5069713;28;19919;-72
2021/10/20 01:52:55;;;;;;;;;;;14.70;99.90;;;;;;5087311;28;19920;-71
2021/10/20 01:55:20;;;;;;;;;;;14.70;99.90;;;;;;5086744;28;19915;-71
2021/10/20 01:57:46;;;;;;;;;;;14.70;99.90;;;;;;5088153;28;19916;-71
2021/10/20 02:00:12;;;;;;;;;;;14.70;99.90;;;;;;5087301;28;20361;-71
2021/10/20 02:02:37;;;;;;;;;;;14.70;99.90;;;;;;5088005;28;20255;-71
2021/10/20 02:05:04;;;;;;;;;;;14.70;99.90;;;;;;5088912;28;19936;-71
2021/10/20 02:07:30;;;;;;;;;;;14.70;99.90;;;;;;5088033;28;19919;-71
2021/10/20 02:09:55;;;;;;;;;;;14.70;99.90;;;;;;5087445;28;19920;-71
2021/10/20 02:12:20;;;;;;;;;;;14.70;99.80;;;;;;5088292;28;19987;-72
2021/10/20 02:14:46;;;;;;;;;;;14.80;99.90;;;;;;5087253;28;20007;-71
2021/10/20 02:17:11;;;;;;;;;;;14.70;99.80;;;;;;5088494;28;20019;-71
2021/10/20 02:19:37;;;;;;;;;;;14.70;99.80;;;;;;5087585;28;20355;-72
2021/10/20 02:22:03;;;;;;;;;;;14.70;99.80;;;;;;5088526;28;20417;-72
2021/10/20 02:24:28;;;;;;;;;;;14.70;99.70;;;;;;5086844;28;19920;-71
2021/10/20 02:26:54;;;;;;;;;;;14.80;99.70;;;;;;5087288;28;19920;-71
2021/10/20 02:29:19;;;;;;;;;;;14.80;99.70;;;;;;5061156;28;19916;-71
2021/10/20 02:31:47;;;;;;;;;;;14.70;99.60;;;;;;5090669;28;20561;-71
2021/10/20 02:34:16;;;;;;;;;;;14.70;99.50;;;;;;5091067;28;20339;-71
2021/10/20 02:36:42;;;;;;;;;;;14.80;99.50;;;;;;5091920;28;19965;-71
2021/10/20 02:39:08;;;;;;;;;;;14.70;99.50;;;;;;5091363;28;19908;-72
2021/10/20 02:41:33;;;;;;;;;;;14.70;99.50;;;;;;5091928;28;19923;-71
2021/10/20 02:43:59;;;;;;;;;;;14.70;99.50;;;;;;5089052;28;20346;-71
2021/10/20 02:46:24;;;;;;;;;;;14.70;99.50;;;;;;5092011;28;19951;-71
2021/10/20 02:48:50;;;;;;;;;;;14.70;99.50;;;;;;5091628;28;19912;-72
2021/10/20 02:51:15;;;;;;;;;;;14.70;99.40;;;;;;5092254;28;19912;-71
2021/10/20 02:53:41;;;;;;;;;;;14.70;99.40;;;;;;5090950;28;19912;-71
2021/10/20 02:56:06;;;;;;;;;;;14.70;99.40;;;;;;5092123;28;20275;-71
2021/10/20 02:58:31;;;;;;;;;;;14.70;99.30;;;;;;5091060;28;20347;-71
2021/10/20 03:00:57;;;;;;;;;;;14.70;99.20;;;;;;5089087;28;19912;-71
2021/10/20 03:03:22;;;;;;;;;;;14.70;99.20;;;;;;5090610;28;20367;-71
2021/10/20 03:05:48;;;;;;;;;;;14.70;99.20;;;;;;5091879;28;19915;-72
2021/10/20 03:08:13;;;;;;;;;;;14.70;99.10;;;;;;5091236;28;19916;-71
2021/10/20 03:10:39;;;;;;;;;;;14.70;99.10;;;;;;5091739;28;19955;-72
2021/10/20 03:13:05;;;;;;;;;;;14.70;99.10;;;;;;5090859;28;19978;-71
2021/10/20 03:15:30;;;;;;;;;;;14.70;98.90;;;;;;5090412;28;20379;-72
2021/10/20 03:17:55;;;;;;;;;;;14.70;98.90;;;;;;5089751;28;20388;-71
2021/10/20 03:20:21;;;;;;;;;;;14.70;98.80;;;;;;5090678;28;20114;-72
2021/10/20 03:22:46;;;;;;;;;;;14.70;98.70;;;;;;5090628;28;19940;-72
2021/10/20 03:25:13;;;;;;;;;;;14.70;98.70;;;;;;5091619;28;19965;-72
2021/10/20 03:27:42;;;;;;;;;;;14.70;98.70;;;;;;5090819;28;19916;-71
2021/10/20 03:30:08;;;;;;;;;;;14.70;98.70;;;;;;5090772;28;19919;-72
2021/10/20 03:32:33;;;;;;;;;;;14.70;98.60;;;;;;5091276;28;20466;-72
2021/10/20 03:34:59;;;;;;;;;;;14.70;98.60;;;;;;5089332;28;19912;-71
2021/10/20 03:37:24;;;;;;;;;;;14.70;98.50;;;;;;5090586;28;19995;-71
2021/10/20 03:39:49;;;;;;;;;;;14.70;98.40;;;;;;5090948;28;20046;-72
2021/10/20 03:42:15;;;;;;;;;;;14.70;98.20;;;;;;5089425;28;19999;-71
2021/10/20 03:44:40;;;;;;;;;;;14.70;98.20;;;;;;5090018;28;19912;-71
2021/10/20 03:47:06;;;;;;;;;;;14.70;98.10;;;;;;5086933;28;19916;-71
2021/10/20 03:49:31;;;;;;;;;;;14.70;98.10;;;;;;5070421;28;20529;-71
2021/10/20 03:51:56;;;;;;;;;;;14.70;98.20;;;;;;5088937;28;19912;-71
2021/10/20 03:54:22;;;;;;;;;;;14.70;98.00;;;;;;5089144;28;20000;-71
2021/10/20 03:56:47;;;;;;;;;;;14.80;98.00;;;;;;5089064;28;20397;-70
2021/10/20 03:59:13;;;;;;;;;;;14.80;98.00;;;;;;5090275;28;20338;-70
2021/10/20 04:01:38;;;;;;;;;;;14.80;98.00;;;;;;5086944;28;19920;-70
2021/10/20 04:04:03;;;;;;;;;;;14.80;97.80;;;;;;5085368;28;19916;-72
2021/10/20 04:06:29;;;;;;;;;;;14.80;97.70;;;;;;5086948;28;19923;-71
2021/10/20 04:08:54;;;;;;;;;;;14.80;97.70;;;;;;5089014;28;19923;-72
2021/10/20 04:11:20;;;;;;;;;;;14.80;97.70;;;;;;5088654;28;19923;-72
2021/10/20 04:13:45;;;;;;;;;;;14.90;97.70;;;;;;5085966;28;19935;-71
2021/10/20 04:16:10;;;;;;;;;;;14.80;97.50;;;;;;5087252;28;19916;-71
2021/10/20 04:18:36;;;;;;;;;;;14.80;97.50;;;;;;5087834;28;19923;-72
2021/10/20 04:21:02;;;;;;;;;;;14.90;97.40;;;;;;5068160;28;19971;-71
2021/10/20 04:23:27;;;;;;;;;;;14.90;97.50;;;;;;5087235;28;19920;-71
2021/10/20 04:25:52;;;;;;;;;;;14.90;97.40;;;;;;5089021;28;20830;-70
2021/10/20 04:28:18;;;;;;;;;;;14.80;97.30;;;;;;5088239;28;19916;-69
2021/10/20 04:30:43;;;;;;;;;;;14.90;97.40;;;;;;5088278;28;19922;-69
2021/10/20 04:33:09;;;;;;;;;;;14.80;97.30;;;;;;5086891;28;19916;-70
2021/10/20 04:35:34;;;;;;;;;;;14.90;97.30;;;;;;5087438;28;19938;-69
2021/10/20 04:38:01;;;;;;;;;;;14.80;97.30;;;;;;5088414;28;19912;-69
2021/10/20 04:40:26;;;;;;;;;;;14.80;97.30;;;;;;5087969;28;20000;-69
2021/10/20 04:42:52;;;;;;;;;;;14.80;97.20;;;;;;5070611;28;20368;-69
2021/10/20 04:45:17;;;;;;;;;;;14.80;97.20;;;;;;5087637;28;19912;-71
2021/10/20 04:47:43;;;;;;;;;;;14.80;97.60;;;;;;5089496;28;19984;-72
2021/10/20 04:50:09;;;;;;;;;;;14.90;97.50;;;;;;5085690;28;19923;-68
2021/10/20 04:52:35;;;;;;;;;;;14.90;96.90;;;;;;5086634;28;20366;-69
2021/10/20 04:55:02;;;;;;;;;;;14.90;97.00;;;;;;5088239;28;19958;-69
2021/10/20 04:57:27;;;;;;;;;;;14.90;97.00;;;;;;5063037;28;20007;-68
2021/10/20 04:59:53;;;;;;;;;;;14.90;96.80;;;;;;5087673;28;19928;-69
2021/10/20 05:02:18;;;;;;;;;;;14.80;96.80;;;;;;5087191;28;19908;-69
2021/10/20 05:04:44;;;;;;;;;;;14.90;96.80;;;;;;5088416;28;19920;-69
2021/10/20 05:07:11;;;;;;;;;;;14.80;96.70;;;;;;5087846;28;20344;-69
2021/10/20 05:09:37;;;;;;;;;;;14.90;96.70;;;;;;5088571;28;19916;-69
2021/10/20 05:12:02;;;;;;;;;;;14.90;96.60;;;;;;5088649;28;19920;-67
2021/10/20 05:14:27;;;;;;;;;;;14.90;96.60;;;;;;5087286;28;19920;-67
2021/10/20 05:16:53;;;;;;;;;;;14.90;96.50;;;;;;5070786;28;19951;-67
2021/10/20 05:19:18;;;;;;;;;;;14.90;96.60;;;;;;5086961;28;19908;-67
2021/10/20 05:21:44;;;;;;;;;;;14.80;96.40;;;;;;5088909;28;19912;-69
2021/10/20 05:24:09;;;;;;;;;;;14.80;96.40;;;;;;5083408;22;20785;-70
2021/10/20 05:26:35;;;;;;;;;;;14.80;96.40;;;;;;5040002;28;19993;-70
2021/10/20 05:29:01;;;;;;;;;;;14.80;96.30;;;;;;5038497;28;19917;-70
2021/10/20 05:31:27;;;;;;;;;;;14.90;96.40;;;;;;5038541;28;19916;-70
2021/10/20 05:33:52;;;;;;;;;;;14.80;96.20;;;;;;5037318;28;19913;-70
2021/10/20 05:36:17;;;;;;;;;;;14.90;96.10;;;;;;5039056;28;19924;-70
2021/10/20 05:38:43;;;;;;;;;;;14.80;96.20;;;;;;5037774;28;19917;-70
2021/10/20 05:41:08;;;;;;;;;;;14.80;96.10;;;;;;5038179;28;19913;-70
2021/10/20 05:43:34;;;;;;;;;;;14.80;96.10;;;;;;5037685;28;20008;-70
2021/10/20 05:45:59;;;;;;;;;;;14.80;96.20;;;;;;5038546;28;20078;-71
2021/10/20 05:48:24;;;;;;;;;;;14.80;96.20;;;;;;5038081;28;19927;-71
2021/10/20 05:50:51;;;;;;;;;;;14.80;96.00;;;;;;5037056;28;19921;-71
2021/10/20 05:53:16;;;;;;;;;;;14.80;96.10;;;;;;5038063;28;19917;-71
2021/10/20 05:55:43;;;;;;;;;;;14.70;96.20;;;;;;5037675;28;20362;-70
2021/10/20 05:58:09;;;;;;;;;;;14.70;96.10;;;;;;5038635;28;19916;-71
2021/10/20 06:00:34;;;;;;;;;;;14.70;96.20;;;;;;5037182;28;19991;-71
2021/10/20 06:03:00;;;;;;;;;;;14.70;96.20;;;;;;5038324;28;19916;-71
2021/10/20 06:05:25;;;;;;;;;;;14.70;96.20;;;;;;5036134;28;19974;-71
2021/10/20 06:07:51;;;;;;;;;;;14.70;96.10;;;;;;5038042;28;19909;-70
2021/10/20 06:10:16;;;;;;;;;;;14.70;96.10;;;;;;5037367;28;19988;-70
2021/10/20 06:12:42;;;;;;;;;;;14.70;95.90;;;;;;5038086;28;19909;-70
2021/10/20 06:15:08;;;;;;;;;;;14.80;96.00;;;;;;5038634;28;19956;-70
2021/10/20 06:17:34;;;;;;;;;;;14.70;96.00;;;;;;5038220;28;19916;-70
2021/10/20 06:19:59;;;;;;;;;;;14.80;96.00;;;;;;5037684;28;19970;-71
2021/10/20 06:22:25;;;;;;;;;;;14.80;95.80;;;;;;5036641;28;19913;-71
2021/10/20 06:24:50;;;;;;;;;;;14.80;95.90;;;;;;5038153;28;19925;-71
2021/10/20 06:27:16;;;;;;;;;;;14.80;95.80;;;;;;5037948;28;19909;-70
2021/10/20 06:29:41;;;;;;;;;;;14.80;95.90;;;;;;5037805;28;19920;-70
2021/10/20 06:32:07;;;;;;;;;;;14.90;95.80;;;;;;5037687;28;19996;-70
2021/10/20 06:34:32;;;;;;;;;;;14.80;95.70;;;;;;5037589;28;19917;-70
2021/10/20 06:36:58;;;;;;;;;;;14.90;95.70;;;;;;5037770;28;20284;-70
2021/10/20 06:39:24;;;;;;;;;;;14.90;95.70;;;;;;5036906;28;20004;-71
2021/10/20 06:41:50;;;;;;;;;;;14.90;95.70;;;;;;5037684;28;19916;-71
2021/10/20 06:44:16;;;;;;;;;;;14.90;95.70;;;;;;5036672;28;19913;-71
2021/10/20 06:46:41;;;;;;;;;;;14.90;95.70;;;;;;5037584;28;20007;-71
2021/10/20 06:49:07;;;;;;;;;;;15.00;95.70;;;;;;5037154;28;19999;-71
2021/10/20 06:51:32;;;;;;;;;;;14.90;95.60;;;;;;5036830;28;19920;-71
2021/10/20 06:53:58;;;;;;;;;;;14.90;95.60;;;;;;5036564;28;20390;-70
2021/10/20 06:56:24;;;;;;;;;;;15.00;95.40;;;;;;5037935;28;19912;-70
2021/10/20 06:58:49;;;;;;;;;;;15.00;95.30;;;;;;5037323;28;19917;-70
2021/10/20 07:01:15;;;;;;;;;;;15.00;95.30;;;;;;5037864;28;20512;-70
2021/10/20 07:03:40;;;;;;;;;;;15.00;95.30;;;;;;5036987;28;19913;-71
2021/10/20 07:06:05;;;;;;;;;;;15.10;95.30;;;;;;5038324;28;19967;-70
2021/10/20 07:08:31;;;;;;;;;;;15.10;95.20;;;;;;5037092;28;19910;-70
2021/10/20 07:10:56;;;;;;;;;;;15.10;95.10;;;;;;5037158;28;19920;-71
2021/10/20 07:13:22;;;;;;;;;;;15.10;95.10;;;;;;5037774;28;20264;-71
2021/10/20 07:15:49;;;;;;;;;;;15.10;95.20;;;;;;5037081;28;20378;-70
2021/10/20 07:18:15;;;;;;;;;;;15.10;94.90;;;;;;5040216;28;19913;-70
2021/10/20 07:20:40;;;;;;;;;;;15.20;94.90;;;;;;5040782;28;20386;-70
2021/10/20 07:23:06;;;;;;;;;;;15.20;95.10;;;;;;5040370;28;19960;-70
2021/10/20 07:25:31;;;;;;;;;;;15.20;95.00;;;;;;5039996;28;19948;-71
2021/10/20 07:27:56;;;;;;;;;;;15.30;94.70;;;;;;5041390;28;19968;-70
2021/10/20 07:30:22;;;;;;;;;;;15.30;94.70;;;;;;5040412;28;19949;-70
2021/10/20 07:32:48;;;;;;;;;;;15.30;94.50;;;;;;5040195;28;19913;-70
2021/10/20 07:35:14;;;;;;;;;;;15.40;94.30;;;;;;5040939;28;19913;-70
2021/10/20 07:37:40;;;;;;;;;;;15.50;94.30;;;;;;5040528;28;19917;-71
2021/10/20 07:40:06;;;;;;;;;;;15.50;94.20;;;;;;5039975;28;20382;-70
2021/10/20 07:42:33;;;;;;;;;;;15.60;94.10;;;;;;5040171;28;20026;-70
2021/10/20 07:44:58;;;;;;;;;;;15.70;94.00;;;;;;5040933;28;19943;-71
2021/10/20 07:47:26;;;;;;;;;;;15.70;93.90;;;;;;5040141;28;19915;-71
2021/10/20 07:49:52;;;;;;;;;;;15.70;93.80;;;;;;5040339;28;20407;-71
2021/10/20 07:52:18;;;;;;;;;;;15.80;93.70;;;;;;5039961;28;19917;-71
2021/10/20 07:54:43;;;;;;;;;;;15.80;93.60;;;;;;5040791;28;19921;-70
2021/10/20 07:57:10;;;;;;;;;;;15.90;93.50;;;;;;5039646;28;19939;-70
2021/10/20 07:59:36;;;;;;;;;;;15.90;93.40;;;;;;5040202;28;19915;-70
2021/10/20 08:02:01;;;;;;;;;;;16.00;93.20;;;;;;5039626;28;19909;-70
2021/10/20 08:04:27;;;;;;;;;;;16.00;93.30;;;;;;5040050;28;19917;-71
2021/10/20 08:06:52;;;;;;;;;;;16.00;93.30;;;;;;5040237;28;20029;-70
2021/10/20 08:09:17;;;;;;;;;;;16.00;93.50;;;;;;5039235;28;19913;-70
2021/10/20 08:11:43;;;;;;;;;;;16.00;93.40;;;;;;5040507;28;19916;-70
2021/10/20 08:14:08;;;;;;;;;;;16.00;93.30;;;;;;5038131;28;20395;-71
2021/10/20 08:16:34;;;;;;;;;;;16.00;93.30;;;;;;5040636;28;20283;-70
2021/10/20 08:18:59;;;;;;;;;;;16.00;93.20;;;;;;5039457;28;19913;-70
2021/10/20 08:21:25;;;;;;;;;;;16.00;93.30;;;;;;5040207;28;19913;-71
2021/10/20 08:23:50;;;;;;;;;;;16.10;93.30;;;;;;5039360;28;20371;-70
2021/10/20 08:26:15;;;;;;;;;;;16.10;93.30;;;;;;5039447;28;20007;-70
2021/10/20 08:28:41;;;;;;;;;;;16.10;93.10;;;;;;5038532;28;20132;-71
2021/10/20 08:31:07;;;;;;;;;;;16.20;93.10;;;;;;5038263;28;19938;-70
2021/10/20 08:33:32;;;;;;;;;;;16.20;93.10;;;;;;5039509;28;19917;-70
2021/10/20 08:35:58;;;;;;;;;;;16.20;92.90;;;;;;5039371;28;19920;-71
2021/10/20 08:38:23;;;;;;;;;;;16.30;92.90;;;;;;5038765;28;19913;-71
2021/10/20 08:40:49;;;;;;;;;;;16.30;92.90;;;;;;5038836;28;19936;-71
2021/10/20 08:43:15;;;;;;;;;;;16.30;93.00;;;;;;5039432;28;19913;-71
2021/10/20 08:45:41;;;;;;;;;;;16.40;92.90;;;;;;5039646;28;19913;-71
2021/10/20 08:48:07;;;;;;;;;;;16.40;92.90;;;;;;5044213;28;19913;-71
2021/10/20 08:50:33;;;;;;;;;;;16.40;92.80;;;;;;5038630;28;19970;-71
2021/10/20 08:52:59;;;;;;;;;;;16.40;92.80;;;;;;5038758;28;19921;-70
2021/10/20 08:55:26;;;;;;;;;;;16.40;92.60;;;;;;5039344;28;19951;-70
2021/10/20 08:57:52;;;;;;;;;;;16.40;92.60;;;;;;5038680;28;19917;-71
2021/10/20 09:00:18;;;;;;;;;;;16.50;92.70;;;;;;5039048;28;19917;-71
2021/10/20 09:02:47;;;;;;;;;;;16.50;92.60;;;;;;5038179;28;20003;-70
2021/10/20 09:05:14;;;;;;;;;;;16.50;92.60;;;;;;5039178;28;19913;-71
2021/10/20 09:07:39;;;;;;;;;;;16.50;92.50;;;;;;5038317;28;19913;-70
2021/10/20 09:10:05;;;;;;;;;;;16.50;92.60;;;;;;5038559;28;19912;-70
2021/10/20 09:12:37;;;;;;;;;;;16.50;92.60;;;;;;5038648;28;19920;-71
2021/10/20 09:15:05;;;;;;;;;;;16.50;92.70;;;;;;5038224;28;20267;-70
2021/10/20 09:17:48;;;;;;;;;;;16.60;92.60;;;;;;5038940;28;19958;-71
2021/10/20 09:20:14;;;;;;;;;;;16.60;92.50;;;;;;5038141;28;19967;-71
2021/10/20 09:22:50;;;;;;;;;;;16.60;92.50;;;;;;5037789;28;19959;-71
2021/10/20 09:25:16;;;;;;;;;;;16.70;92.60;;;;;;5038803;28;19920;-71
2021/10/20 09:27:43;;;;;;;;;;;16.70;92.70;;;;;;5038129;28;19920;-71
2021/10/20 09:30:10;;;;;;;;;;;16.70;92.70;;;;;;5037536;28;20386;-71
2021/10/20 09:32:35;;;;;;;;;;;16.70;92.60;;;;;;5044216;28;20439;-71
2021/10/20 09:35:01;;;;;;;;;;;16.80;92.50;;;;;;5038464;28;19949;-70
2021/10/20 09:37:27;;;;;;;;;;;16.80;92.50;;;;;;5037692;28;19909;-70
2021/10/20 09:40:01;;;;;;;;;;;16.90;92.60;;;;;;5037694;28;19912;-72
2021/10/20 09:42:26;;;;;;;;;;;16.90;92.50;;;;;;5028002;28;20299;-72
2021/10/20 09:44:52;;;;;;;;;;;17.00;92.50;;;;;;5038449;28;19909;-71
2021/10/20 09:47:19;;;;;;;;;;;17.00;92.60;;;;;;5019098;28;19914;-69
2021/10/20 09:49:48;;;;;;;;;;;17.10;92.40;;;;;;5038037;28;19923;-71
2021/10/20 09:52:14;;;;;;;;;;;17.20;92.60;;;;;;5037736;28;20060;-72
2021/10/20 09:54:41;;;;;;;;;;;17.20;92.60;;;;;;5035324;28;20063;-71
2021/10/20 09:57:06;;;;;;;;;;;17.30;92.50;;;;;;5038459;28;19913;-71
2021/10/20 09:59:32;;;;;;;;;;;17.40;92.70;;;;;;5037815;28;19988;-70
2021/10/20 10:01:58;;;;;;;;;;;17.40;92.40;;;;;;5038193;28;19967;-72
2021/10/20 10:04:25;;;;;;;;;;;17.50;92.50;;;;;;5036719;28;20038;-72
2021/10/20 10:06:51;;;;;;;;;;;17.50;92.60;;;;;;5038531;28;19917;-72
2021/10/20 10:09:16;;;;;;;;;;;17.60;92.60;;;;;;5037031;28;20422;-72
2021/10/20 10:12:02;;;;;;;;;;;17.70;92.50;;;;;;5037616;28;20482;-71
2021/10/20 10:14:29;;;;;;;;;;;17.80;92.40;;;;;;5022219;28;19912;-71
2021/10/20 10:16:59;;;;;;;;;;;17.80;92.10;;;;;;5038444;28;19913;-71
2021/10/20 10:19:29;;;;;;;;;;;17.80;92.10;;;;;;5028267;28;19939;-71
2021/10/20 10:21:54;;;;;;;;;;;17.80;92.20;;;;;;5037287;28;19910;-71
2021/10/20 10:24:20;;;;;;;;;;;17.80;92.30;;;;;;5037023;28;19920;-69
2021/10/20 10:26:57;;;;;;;;;;;17.80;92.40;;;;;;5037784;28;19913;-69
2021/10/20 10:29:22;;;;;;;;;;;17.80;92.50;;;;;;5037373;28;19917;-69
2021/10/20 10:31:49;;;;;;;;;;;17.80;92.60;;;;;;5037602;28;20360;-69
2021/10/20 10:34:38;;;;;;;;;;;17.70;92.60;;;;;;5037437;28;19913;-69
2021/10/20 10:37:05;;;;;;;;;;;17.80;92.70;;;;;;5024091;28;19960;-70
2021/10/20 10:39:31;;;;;;;;;;;17.90;92.80;;;;;;5036960;28;19920;-70
2021/10/20 10:42:05;;;;;;;;;;;17.90;92.70;;;;;;5037737;28;19913;-70
2021/10/20 10:44:49;;;;;;;;;;;18.00;92.80;;;;;;5037689;28;19912;-70
2021/10/20 10:47:18;;;;;;;;;;;18.00;92.60;;;;;;5037186;28;19959;-70
2021/10/20 10:49:53;;;;;;;;;;;18.10;92.70;;;;;;5037203;28;19925;-70
2021/10/20 10:52:20;;;;;;;;;;;18.20;92.60;;;;;;5038579;28;19916;-70
2021/10/20 10:54:52;;;;;;;;;;;18.30;92.50;;;;;;5040961;28;20280;-70
2021/10/20 10:57:18;;;;;;;;;;;18.30;92.60;;;;;;5040222;28;19917;-69
2021/10/20 10:59:53;;;;;;;;;;;18.40;92.50;;;;;;5041990;28;19924;-70
2021/10/20 11:02:38;;;;;;;;;;;18.40;92.30;;;;;;5041291;28;20403;-70
2021/10/20 11:05:04;;;;;;;;;;;18.40;92.30;;;;;;5041212;28;20043;-70
2021/10/20 11:07:30;;;;;;;;;;;18.40;92.30;;;;;;5040289;28;19913;-70
2021/10/20 11:09:56;;;;;;;;;;;18.50;92.30;;;;;;5041177;28;19913;-70
2021/10/20 11:12:24;;;;;;;;;;;18.50;92.30;;;;;;5040815;28;19960;-70
2021/10/20 11:14:51;;;;;;;;;;;18.50;92.40;;;;;;5039537;28;19921;-70
2021/10/20 11:17:17;;;;;;;;;;;18.50;92.40;;;;;;5040720;28;20305;-70
2021/10/20 11:19:42;;;;;;;;;;;18.60;92.30;;;;;;5041020;28;19916;-70
2021/10/20 11:22:08;;;;;;;;;;;18.60;92.20;;;;;;5047511;28;20014;-70
2021/10/20 11:24:35;;;;;;;;;;;18.50;92.30;;;;;;5083996;22;19978;-62
2021/10/20 11:27:05;;;;;;;;;;;18.60;92.30;;;;;;5088867;28;19970;-63
2021/10/20 11:29:39;;;;;;;;;;;18.60;92.30;;;;;;5086246;28;19917;-63
2021/10/20 11:32:08;;;;;;;;;;;18.60;92.20;;;;;;5087185;28;19916;-63
2021/10/20 11:34:38;;;;;;;;;;;18.70;92.30;;;;;;5087920;28;19965;-60
2021/10/20 11:37:04;;;;;;;;;;;18.80;92.10;;;;;;5088575;28;20391;-61
2021/10/20 11:39:30;;;;;;;;;;;18.80;92.10;;;;;;5088576;28;20371;-63
2021/10/20 11:41:56;;;;;;;;;;;18.90;92.10;;;;;;5089089;28;19909;-61
2021/10/20 11:44:26;;;;;;;;;;;18.90;92.10;;;;;;5068207;28;20241;-62
2021/10/20 11:46:59;;;;;;;;;;;19.00;92.20;;;;;;5067736;28;19923;-63
2021/10/20 11:49:25;;;;;;;;;;;19.00;92.10;;;;;;5087651;28;19912;-62
2021/10/20 11:51:51;;;;;;;;;;;19.00;92.00;;;;;;5088690;28;19915;-64
2021/10/20 11:54:17;;;;;;;;;;;19.00;92.10;;;;;;5087211;28;19912;-63
2021/10/20 11:56:50;;;;;;;;;;;19.00;92.00;;;;;;5088328;28;20330;-62
2021/10/20 11:59:19;;;;;;;;;;;19.00;92.00;;;;;;5087755;28;19958;-63
2021/10/20 12:01:46;;;;;;;;;;;19.00;92.10;;;;;;5088267;28;19927;-59
2021/10/20 12:04:11;;;;;;;;;;;18.90;92.00;;;;;;5083673;28;20390;-61
2021/10/20 12:06:37;;;;;;;;;;;18.90;92.10;;;;;;5087739;28;19912;-62
2021/10/20 12:09:02;;;;;;;;;;;18.90;92.10;;;;;;5088288;28;20280;-61
2021/10/20 12:11:28;;;;;;;;;;;18.90;92.20;;;;;;5087579;28;20318;-61
2021/10/20 12:14:03;;;;;;;;;;;18.90;92.20;;;;;;5086355;28;19952;-61
2021/10/20 12:16:28;;;;;;;;;;;19.00;92.20;;;;;;5068518;28;19984;-60
2021/10/20 12:18:56;;;;;;;;;;;19.00;92.10;;;;;;5069542;28;20376;-63
2021/10/20 12:21:25;;;;;;;;;;;19.10;92.10;;;;;;5085820;28;20376;-63
2021/10/20 12:23:51;;;;;;;;;;;19.10;92.00;;;;;;5086754;28;20068;-61
2021/10/20 12:26:19;;;;;;;;;;;19.10;91.90;;;;;;5087379;28;21184;-64
2021/10/20 12:28:45;;;;;;;;;;;19.10;91.90;;;;;;5087331;28;20136;-60
2021/10/20 12:31:12;;;;;;;;;;;19.20;91.90;;;;;;5087558;28;19912;-63
2021/10/20 12:33:39;;;;;;;;;;;19.30;91.70;;;;;;5086533;28;20380;-63
2021/10/20 12:36:05;;;;;;;;;;;19.20;91.60;;;;;;5087543;28;19951;-62
2021/10/20 12:38:33;;;;;;;;;;;19.30;91.80;;;;;;5085355;28;19947;-60
2021/10/20 12:41:05;;;;;;;;;;;19.30;91.70;;;;;;5087618;28;19908;-62
2021/10/20 12:43:31;;;;;;;;;;;19.30;91.60;;;;;;5083709;28;19931;-62
2021/10/20 12:45:57;;;;;;;;;;;19.30;91.60;;;;;;5069205;28;20352;-63
2021/10/20 12:48:23;;;;;;;;;;;19.40;91.50;;;;;;5083220;28;19916;-59
2021/10/20 12:50:48;;;;;;;;;;;19.40;91.60;;;;;;5068578;28;20015;-63
2021/10/20 12:53:14;;;;;;;;;;;19.30;91.80;;;;;;5086630;28;19916;-61
2021/10/20 12:55:40;;;;;;;;;;;19.30;91.70;;;;;;5086718;28;20006;-63
2021/10/20 12:58:13;;;;;;;;;;;19.30;91.70;;;;;;5086974;28;20000;-62
2021/10/20 13:00:40;;;;;;;;;;;19.20;91.90;;;;;;5069268;28;20331;-63
2021/10/20 13:03:06;;;;;;;;;;;19.20;91.80;;;;;;5083376;28;19912;-63
2021/10/20 13:05:32;;;;;;;;;;;19.20;91.90;;;;;;5085641;28;19916;-64
2021/10/20 13:07:59;;;;;;;;;;;19.10;92.10;;;;;;5087241;28;19916;-61
2021/10/20 13:10:24;;;;;;;;;;;19.00;92.30;;;;;;5086973;28;19954;-60
2021/10/20 13:12:56;;;;;;;;;;;19.00;92.40;;;;;;5086430;28;19963;-63
2021/10/20 13:15:22;;;;;;;;;;;19.00;92.50;;;;;;5085839;28;20292;-64
2021/10/20 13:17:47;;;;;;;;;;;18.90;92.60;;;;;;5087535;28;20004;-64
2021/10/20 13:20:14;;;;;;;;;;;18.90;92.60;;;;;;5085219;28;19908;-63
2021/10/20 13:22:40;;;;;;;;;;;18.80;92.60;;;;;;5068599;28;19912;-60
2021/10/20 13:25:06;;;;;;;;;;;18.80;92.60;;;;;;5085832;28;20010;-63
2021/10/20 13:27:33;;;;;;;;;;;18.80;92.80;;;;;;5086052;28;19923;-64
2021/10/20 13:29:59;;;;;;;;;;;18.70;92.70;;;;;;5086236;28;19919;-64
2021/10/20 13:32:24;;;;;;;;;;;18.70;92.80;;;;;;5088094;28;19912;-59
2021/10/20 13:34:50;;;;;;;;;;;18.70;92.80;;;;;;5069638;28;20264;-64
2021/10/20 13:37:15;;;;;;;;;;;18.60;92.70;;;;;;5086317;28;19912;-64
2021/10/20 13:39:41;;;;;;;;;;;18.50;92.80;;;;;;5066321;28;19927;-62
2021/10/20 13:42:06;;;;;;;;;;;18.50;92.90;;;;;;5086419;28;19922;-64
2021/10/20 13:44:32;;;;;;;;;;;18.50;93.00;;;;;;5067669;28;20065;-65
2021/10/20 13:46:58;;;;;;;;;;;18.40;93.00;;;;;;5069257;28;19919;-63
2021/10/20 13:49:24;;;;;;;;;;;18.30;93.10;;;;;;5087754;28;19912;-61
2021/10/20 13:51:49;;;;;;;;;;;18.20;93.20;;;;;;5087254;28;19931;-63
2021/10/20 13:54:15;;;;;;;;;;;18.30;93.30;;;;;;5086273;28;19912;-61
2021/10/20 13:56:40;;;;;;;;;;;18.20;93.30;;;;;;5065631;28;19967;-61
2021/10/20 13:59:05;;;;;;;;;;;18.20;93.40;;;;;;5087513;28;19908;-63
2021/10/20 14:01:31;;;;;;;;;;;18.20;93.40;;;;;;5087392;28;19916;-60
2021/10/20 14:03:58;;;;;;;;;;;18.20;93.50;;;;;;5086652;28;20237;-62
2021/10/20 14:06:24;;;;;;;;;;;18.20;93.50;;;;;;5087433;28;20253;-62
2021/10/20 14:08:49;;;;;;;;;;;18.10;93.60;;;;;;5069067;28;19961;-63
2021/10/20 14:11:15;;;;;;;;;;;18.10;93.60;;;;;;5087725;28;20019;-63